WFDK1: Walnut River, Winfield, KS

Data processed at Tue Jun 18 2019 23:50


All information presented herein is the property of the government of the United States of America and may be revised or deleted at any time without prior notice.
Dissemination of this information without the expressed written consent of the Public Affairs Office, Tulsa District U.S. Army Corps of Engineers is strictly prohibited.
These data are gathered electronically and, as presented, have not undergone any form of quality control. These data are not guaranteed to be valid or correct.
Go to home page.
Go to station list.
Go to home page.

Upstream stations:

Downstream station:
Previous Day
Next Day
Current Day
    
SHEF ID:       WFDK1     WALNUT R AT WINFIELD, KS
STATION TYPE:  
Regulating: Stage =    18.00, Flow =    17822

               PRECIP     STAGE  STAGE(2)  RIV-FLOW  BAT-LOAD
                   in        ft        ft       cfs      volt
              Ccp-Rev   Ccp-Rev   Ccp-Rev   Ccp-Rev   Ccp-Rev
(US/Central)
06/18 00:00      0.00      8.15      ----      5320     12.57
06/18 01:00      0.00      7.98      ----      5142     12.57
06/18 02:00      0.00      7.84      ----      4996     12.57
06/18 03:00      0.00      7.70      ----      4852     12.57
06/18 04:00      0.00      7.55      ----      4698     12.57
06/18 05:00      0.00      7.44      ----      4586     12.57
06/18 06:00      0.00      7.32      ----      4465     12.49
06/18 07:00      0.00      7.22      ----      4365     12.49
06/18 08:00      0.00      7.11      ----      4255     12.65
06/18 09:00      0.00      7.02      ----      4166     12.65
06/18 10:00      0.00      6.94      ----      4087     13.05
06/18 11:00      0.00      6.87      ----      4018     12.97
06/18 12:00      0.00      6.76      ----      3911     13.21
06/18 13:00      0.00      6.68      ----      3834     13.37
06/18 14:00      0.00      6.60      ----      3756     13.21
06/18 15:00      0.00      6.52      ----      3680     13.05
06/18 16:00      0.00      6.44      ----      3603     12.97
06/18 17:00      0.00      6.39      ----      3556     12.97
06/18 18:00      0.00      6.31      ----      3480     12.73
06/18 19:00      0.80      6.39      ----      3556     12.81
06/18 20:00      0.01      6.59      ----      3747     12.73
06/18 21:00      0.00      6.83      ----      3979     12.65
06/18 22:00      0.00      7.34      ----      4485     12.65
06/18 23:00      0.00      7.78      ----      4934     12.65